Time;durP1;ratioP1;P1;durP2;ratioP2;P2;SDS_P1;SDS_P2;PMS_P1;PMS_P2;Temp;Humidity;BMP_temperature;BMP_pressure;BME280_temperature;BME280_humidity;BME280_pressure;Samples;Min_cycle;Max_cycle;Signal;HPM_P1;HPM_P2
2022/04/08 00:00:32;;;;;;;13.07;3.30;;;11.10;53.40;;;;;;5127444;28;20945;-70
2022/04/08 00:02:58;;;;;;;7.03;2.87;;;10.80;49.30;;;;;;5128631;28;20177;-70
2022/04/08 00:05:23;;;;;;;12.37;3.00;;;11.00;51.50;;;;;;5114226;28;20449;-70
2022/04/08 00:07:49;;;;;;;8.73;3.00;;;10.60;52.30;;;;;;5112406;28;20252;-70
2022/04/08 00:10:15;;;;;;;12.73;3.20;;;10.80;49.40;;;;;;5119088;28;20230;-70
2022/04/08 00:12:40;;;;;;;15.40;3.10;;;10.50;50.20;;;;;;5112170;28;20247;-72
2022/04/08 00:15:07;;;;;;;10.40;3.00;;;10.70;48.90;;;;;;5119606;28;20229;-71
2022/04/08 00:17:32;;;;;;;10.57;3.03;;;10.80;47.10;;;;;;5113016;28;20189;-70
2022/04/08 00:19:58;;;;;;;13.90;3.73;;;10.30;46.00;;;;;;5121624;28;20423;-71
2022/04/08 00:22:24;;;;;;;7.00;2.80;;;10.70;49.20;;;;;;5127174;28;20246;-71
2022/04/08 00:24:50;;;;;;;10.43;3.00;;;10.50;47.90;;;;;;5122662;28;20206;-71
2022/04/08 00:27:16;;;;;;;13.00;2.77;;;11.00;46.10;;;;;;5127279;28;20944;-70
2022/04/08 00:29:41;;;;;;;7.47;3.40;;;11.00;45.20;;;;;;5096100;28;20430;-70
2022/04/08 00:32:07;;;;;;;7.27;2.77;;;10.50;46.30;;;;;;5111416;28;20980;-71
2022/04/08 00:34:33;;;;;;;8.27;3.07;;;10.70;45.00;;;;;;5118880;28;20207;-72
2022/04/08 00:36:58;;;;;;;14.10;3.23;;;10.80;46.10;;;;;;5126485;27;20457;-72
2022/04/08 00:39:25;;;;;;;9.40;3.07;;;11.00;45.80;;;;;;5128077;27;20204;-73
2022/04/08 00:41:50;;;;;;;9.93;3.10;;;11.00;45.00;;;;;;5116381;27;20178;-72
2022/04/08 00:44:16;;;;;;;8.77;3.00;;;11.10;43.60;;;;;;5128713;27;20900;-71
2022/04/08 00:46:43;;;;;;;14.83;3.20;;;11.00;44.70;;;;;;5123187;27;20455;-72
2022/04/08 00:49:09;;;;;;;13.00;2.97;;;11.20;43.90;;;;;;5116172;27;20924;-71
2022/04/08 00:51:36;;;;;;;19.00;4.17;;;11.30;44.30;;;;;;5121750;27;20430;-72
2022/04/08 00:54:03;;;;;;;10.53;3.47;;;11.70;42.90;;;;;;5133144;27;20422;-72
2022/04/08 00:56:29;;;;;;;10.07;3.03;;;11.50;42.50;;;;;;5130199;27;20422;-71
2022/04/08 00:58:57;;;;;;;12.17;3.70;;;10.90;44.20;;;;;;5124634;27;20461;-73
2022/04/08 01:01:26;;;;;;;11.90;2.90;;;11.10;44.40;;;;;;5118757;27;20423;-72
2022/04/08 01:03:52;;;;;;;10.00;2.73;;;11.40;42.60;;;;;;5131045;27;20460;-71
2022/04/08 01:06:21;;;;;;;10.97;3.03;;;11.50;40.40;;;;;;5126279;27;20462;-72
2022/04/08 01:08:49;;;;;;;13.87;3.63;;;10.60;44.40;;;;;;5111003;27;20423;-71
2022/04/08 01:11:15;;;;;;;9.97;3.13;;;10.80;43.40;;;;;;5129899;27;21272;-70
2022/04/08 01:13:41;;;;;;;10.87;3.00;;;11.00;40.90;;;;;;5113932;27;20476;-71
2022/04/08 01:16:08;;;;;;;9.73;3.00;;;10.50;43.50;;;;;;5122042;27;20471;-72
2022/04/08 01:18:34;;;;;;;10.27;2.70;;;10.70;42.80;;;;;;5122286;27;20481;-71
2022/04/08 01:21:06;;;;;;;16.97;3.37;;;10.90;42.40;;;;;;5104553;27;20790;-71
2022/04/08 01:23:36;;;;;;;9.37;2.93;;;10.80;42.70;;;;;;5125087;27;20419;-72
2022/04/08 01:26:08;;;;;;;11.27;2.70;;;10.90;42.50;;;;;;5124736;27;21022;-72
2022/04/08 01:28:35;;;;;;;14.40;2.80;;;11.30;40.80;;;;;;5126031;27;20426;-72
2022/04/08 01:31:01;;;;;;;10.03;3.50;;;11.40;41.30;;;;;;5117303;27;20432;-71
2022/04/08 01:33:26;;;;;;;10.80;3.40;;;10.90;41.50;;;;;;5124494;27;20451;-70
2022/04/08 01:35:52;;;;;;;17.87;3.80;;;11.00;41.50;;;;;;5107072;27;20500;-71
2022/04/08 01:38:18;;;;;;;16.30;3.03;;;11.30;40.50;;;;;;5112172;27;20189;-71
2022/04/08 01:40:43;;;;;;;7.27;2.93;;;11.20;40.50;;;;;;5101965;28;20197;-69
2022/04/08 01:43:09;;;;;;;12.13;3.20;;;11.30;40.70;;;;;;5121580;27;20185;-72
2022/04/08 01:45:35;;;;;;;7.90;2.87;;;11.50;38.90;;;;;;5122115;27;20291;-72
2022/04/08 01:48:03;;;;;;;15.43;3.20;;;11.40;38.30;;;;;;5120081;27;20185;-71
2022/04/08 01:50:29;;;;;;;13.53;4.00;;;11.40;39.30;;;;;;5115300;27;20181;-72
2022/04/08 01:52:55;;;;;;;12.90;2.97;;;11.10;39.10;;;;;;5113570;27;20571;-71
2022/04/08 01:55:20;;;;;;;15.17;2.97;;;11.20;39.20;;;;;;5124676;27;20439;-71
2022/04/08 01:57:46;;;;;;;20.60;3.10;;;11.20;39.40;;;;;;5123401;27;20307;-71
2022/04/08 02:00:13;;;;;;;6.60;2.90;;;11.10;38.10;;;;;;5125549;27;20185;-71
2022/04/08 02:02:39;;;;;;;11.20;3.10;;;12.30;37.00;;;;;;5121749;27;21740;-71
2022/04/08 02:05:05;;;;;;;6.63;2.77;;;12.70;36.10;;;;;;5127331;27;20443;-70
2022/04/08 02:07:31;;;;;;;9.97;3.10;;;12.90;36.20;;;;;;5121011;27;20553;-72
2022/04/08 02:09:56;;;;;;;9.40;3.33;;;13.30;35.40;;;;;;5119946;27;20515;-72
2022/04/08 02:12:22;;;;;;;13.40;3.30;;;13.40;35.30;;;;;;5114138;27;20170;-71
2022/04/08 02:14:47;;;;;;;8.50;3.13;;;12.50;37.40;;;;;;5132644;27;20330;-72
2022/04/08 02:17:13;;;;;;;9.27;2.73;;;11.80;38.20;;;;;;5117922;27;20189;-71
2022/04/08 02:19:39;;;;;;;5.93;2.77;;;11.50;39.20;;;;;;5113132;27;20614;-71
2022/04/08 02:22:07;;;;;;;8.30;2.50;;;11.30;39.30;;;;;;5126445;27;20185;-71
2022/04/08 02:24:33;;;;;;;8.80;2.60;;;10.70;36.90;;;;;;5115654;27;20450;-69
2022/04/08 02:26:59;;;;;;;6.13;2.60;;;10.50;35.70;;;;;;5113014;27;20455;-71
2022/04/08 02:29:25;;;;;;;5.80;2.40;;;10.90;34.40;;;;;;5128975;27;20495;-71
2022/04/08 02:31:54;;;;;;;11.40;2.83;;;11.00;33.30;;;;;;5088384;27;20223;-72
2022/04/08 02:34:19;;;;;;;6.60;2.43;;;10.30;34.00;;;;;;5102441;28;20424;-71
2022/04/08 02:36:46;;;;;;;6.57;2.00;;;10.50;34.00;;;;;;5122123;27;20415;-71
2022/04/08 02:39:11;;;;;;;4.80;1.80;;;10.60;32.90;;;;;;5124083;27;20165;-71
2022/04/08 02:41:37;;;;;;;4.50;2.07;;;10.30;31.20;;;;;;5123304;27;20469;-71
2022/04/08 02:44:03;;;;;;;5.53;2.23;;;10.10;32.40;;;;;;5127634;27;20231;-71
2022/04/08 02:46:28;;;;;;;5.93;2.27;;;10.10;31.90;;;;;;5112234;28;20276;-71
2022/04/08 02:48:54;;;;;;;7.47;2.30;;;9.90;33.80;;;;;;5120785;27;20686;-71
2022/04/08 02:51:20;;;;;;;3.57;2.17;;;9.80;33.20;;;;;;5120054;27;20184;-71
2022/04/08 02:53:46;;;;;;;7.63;2.30;;;10.20;32.90;;;;;;5109830;27;20990;-71
2022/04/08 02:56:11;;;;;;;9.90;2.40;;;10.10;32.40;;;;;;5118988;27;20236;-72
2022/04/08 02:58:37;;;;;;;5.37;2.10;;;10.20;32.50;;;;;;5127339;27;20177;-71
2022/04/08 03:01:04;;;;;;;7.20;2.30;;;10.30;33.10;;;;;;5115583;27;20866;-72
2022/04/08 03:03:30;;;;;;;6.83;2.50;;;10.80;32.20;;;;;;5122277;27;20170;-71
2022/04/08 03:05:58;;;;;;;6.03;2.20;;;10.70;32.70;;;;;;5129639;27;20454;-71
2022/04/08 03:08:23;;;;;;;5.17;2.20;;;10.60;32.90;;;;;;5126751;27;20419;-71
2022/04/08 03:10:50;;;;;;;7.47;2.73;;;10.10;33.50;;;;;;5127025;27;20406;-71
2022/04/08 03:13:16;;;;;;;4.20;1.90;;;10.20;33.70;;;;;;5118314;27;20169;-71
2022/04/08 03:15:41;;;;;;;6.73;2.10;;;10.80;32.50;;;;;;5128546;27;20458;-70
2022/04/08 03:18:07;;;;;;;7.97;2.30;;;10.70;33.00;;;;;;5121391;27;20488;-71
2022/04/08 03:20:33;;;;;;;6.80;2.60;;;11.00;33.30;;;;;;5132118;27;20222;-71
2022/04/08 03:22:58;;;;;;;6.50;2.80;;;10.80;33.10;;;;;;5121654;27;20411;-71
2022/04/08 03:25:24;;;;;;;9.87;2.83;;;11.20;33.40;;;;;;5111774;28;20272;-70
2022/04/08 03:27:50;;;;;;;8.57;2.70;;;11.90;32.40;;;;;;5127336;27;20564;-72
2022/04/08 03:30:15;;;;;;;4.73;2.37;;;11.90;33.60;;;;;;5128990;27;20203;-71
2022/04/08 03:32:41;;;;;;;10.10;2.73;;;12.00;33.70;;;;;;5115690;27;20241;-71
2022/04/08 03:35:07;;;;;;;8.43;2.13;;;11.40;35.20;;;;;;5128373;27;20197;-71
2022/04/08 03:37:33;;;;;;;15.33;2.60;;;11.20;35.80;;;;;;5113185;27;20177;-71
2022/04/08 03:39:58;;;;;;;8.80;2.73;;;11.10;36.60;;;;;;5119776;27;20468;-69
2022/04/08 03:42:25;;;;;;;8.97;2.60;;;11.00;36.90;;;;;;5112310;28;20643;-71
2022/04/08 03:44:51;;;;;;;10.50;2.80;;;10.90;38.00;;;;;;5109870;28;20613;-71
2022/04/08 03:47:19;;;;;;;7.03;2.80;;;11.10;37.40;;;;;;5094628;28;20467;-71
2022/04/08 03:49:45;;;;;;;8.40;3.10;;;10.90;37.20;;;;;;5111896;28;20917;-70
2022/04/08 03:52:11;;;;;;;10.93;2.47;;;11.30;36.90;;;;;;5111510;28;20420;-70
2022/04/08 03:54:38;;;;;;;8.63;2.53;;;10.90;37.60;;;;;;5112082;28;20482;-71
2022/04/08 03:57:04;;;;;;;7.67;2.47;;;10.80;37.80;;;;;;5110749;28;20434;-71
2022/04/08 03:59:30;;;;;;;12.30;3.03;;;11.10;37.30;;;;;;5111414;28;20430;-71
2022/04/08 04:01:55;;;;;;;6.77;2.67;;;11.20;37.30;;;;;;5109212;28;20427;-71
2022/04/08 04:04:21;;;;;;;9.33;2.60;;;11.00;37.90;;;;;;5109959;28;20519;-70
2022/04/08 04:06:47;;;;;;;9.90;2.70;;;11.00;37.50;;;;;;5107453;28;20277;-71
2022/04/08 04:09:12;;;;;;;13.10;3.70;;;11.20;37.10;;;;;;5110145;28;20207;-71
2022/04/08 04:11:38;;;;;;;9.83;3.07;;;11.10;37.00;;;;;;5113371;28;20177;-71
2022/04/08 04:14:04;;;;;;;7.57;2.90;;;11.00;37.90;;;;;;5095653;28;20202;-71
2022/04/08 04:16:29;;;;;;;9.47;3.37;;;11.30;37.50;;;;;;5113800;28;20190;-71
2022/04/08 04:18:55;;;;;;;7.30;2.83;;;11.90;36.90;;;;;;5114374;27;20188;-72
2022/04/08 04:21:21;;;;;;;16.60;3.30;;;12.10;34.70;;;;;;5118548;27;20541;-75
2022/04/08 04:23:46;;;;;;;18.13;3.20;;;11.40;36.10;;;;;;5116300;27;20170;-71
2022/04/08 04:26:12;;;;;;;10.60;3.20;;;11.20;37.90;;;;;;5115344;27;20706;-71
2022/04/08 04:28:38;;;;;;;9.50;2.90;;;11.90;35.20;;;;;;5117254;27;20178;-70
2022/04/08 04:31:04;;;;;;;9.20;2.90;;;12.10;35.40;;;;;;5115611;27;20174;-71
2022/04/08 04:33:33;;;;;;;11.53;2.63;;;12.60;33.90;;;;;;5110237;27;20204;-70
2022/04/08 04:35:59;;;;;;;10.33;2.70;;;12.80;33.30;;;;;;5114616;27;20515;-71
2022/04/08 04:38:24;;;;;;;11.70;2.90;;;12.90;33.60;;;;;;5114499;27;20424;-71
2022/04/08 04:40:50;;;;;;;12.93;2.73;;;12.90;35.60;;;;;;5113134;27;20415;-69
2022/04/08 04:43:16;;;;;;;11.03;2.93;;;13.30;34.00;;;;;;5115162;27;20182;-71
2022/04/08 04:45:43;;;;;;;6.00;2.50;;;13.10;35.20;;;;;;5121913;27;21117;-72
2022/04/08 04:48:12;;;;;;;5.73;2.67;;;13.00;33.40;;;;;;5118810;27;20834;-71
2022/04/08 04:50:38;;;;;;;10.33;2.80;;;13.00;33.50;;;;;;5126395;27;20415;-71
2022/04/08 04:53:04;;;;;;;6.73;2.80;;;13.00;34.00;;;;;;5133014;27;20509;-72
2022/04/08 04:55:30;;;;;;;9.37;2.70;;;12.90;35.00;;;;;;5116337;27;20527;-72
2022/04/08 04:57:56;;;;;;;5.67;2.90;;;13.00;34.90;;;;;;5116477;27;20459;-72
2022/04/08 05:00:22;;;;;;;9.70;2.87;;;13.20;35.00;;;;;;5125854;27;20535;-71
2022/04/08 05:02:48;;;;;;;9.30;2.87;;;12.80;35.00;;;;;;5116755;27;20510;-72
2022/04/08 05:05:14;;;;;;;12.70;2.90;;;12.50;36.10;;;;;;5126012;27;20470;-71
2022/04/08 05:07:40;;;;;;;9.77;3.20;;;12.10;38.10;;;;;;5122061;27;20479;-71
2022/04/08 05:10:06;;;;;;;9.30;3.07;;;11.70;38.90;;;;;;5114628;27;20173;-71
2022/04/08 05:12:32;;;;;;;15.80;2.83;;;11.90;41.20;;;;;;5124893;27;20165;-71
2022/04/08 05:14:58;;;;;;;8.40;3.03;;;11.80;40.60;;;;;;5123733;27;20451;-72
2022/04/08 05:17:24;;;;;;;7.97;2.70;;;11.90;40.30;;;;;;5118775;27;20423;-71
2022/04/08 05:19:49;;;;;;;10.50;3.10;;;11.70;39.80;;;;;;5117655;27;20601;-71
2022/04/08 05:22:15;;;;;;;10.43;3.07;;;11.40;40.50;;;;;;5113186;27;20178;-70
2022/04/08 05:24:41;;;;;;;10.30;2.90;;;11.70;41.90;;;;;;5122196;27;20238;-71
2022/04/08 05:27:06;;;;;;;12.10;2.80;;;11.90;42.00;;;;;;5121684;27;20201;-71
2022/04/08 05:29:33;;;;;;;14.67;3.00;;;11.70;41.10;;;;;;5126745;27;20177;-71
2022/04/08 05:31:58;;;;;;;7.80;3.10;;;11.20;42.30;;;;;;5116872;27;20203;-71
2022/04/08 05:34:24;;;;;;;16.80;3.67;;;11.00;44.20;;;;;;5120858;27;20953;-71
2022/04/08 05:36:49;;;;;;;5.90;2.57;;;11.10;45.10;;;;;;5128888;27;20699;-71
2022/04/08 05:39:15;;;;;;;9.00;3.40;;;11.20;43.70;;;;;;5116722;27;20200;-71
2022/04/08 05:41:41;;;;;;;7.17;3.03;;;11.20;44.60;;;;;;5119533;27;20178;-71
2022/04/08 05:44:06;;;;;;;6.20;2.73;;;11.40;44.10;;;;;;5117273;27;20174;-71
2022/04/08 05:46:32;;;;;;;10.60;3.17;;;11.50;43.90;;;;;;5122174;27;20251;-71
2022/04/08 05:48:58;;;;;;;12.10;3.60;;;11.30;45.10;;;;;;5121849;27;20257;-71
2022/04/08 05:51:24;;;;;;;18.97;3.47;;;11.10;46.80;;;;;;5114211;27;20252;-71
2022/04/08 05:53:49;;;;;;;7.47;2.87;;;10.30;45.80;;;;;;5127675;27;20170;-71
2022/04/08 05:56:15;;;;;;;13.90;2.90;;;11.00;48.90;;;;;;5115955;27;20266;-71
2022/04/08 05:58:40;;;;;;;9.47;3.13;;;10.80;50.00;;;;;;5120653;27;20170;-70
2022/04/08 06:01:06;;;;;;;4.90;3.13;;;11.50;48.00;;;;;;5116282;27;20182;-70
2022/04/08 06:03:32;;;;;;;11.93;2.97;;;11.30;46.90;;;;;;5125538;27;20169;-71
2022/04/08 06:05:57;;;;;;;11.67;3.10;;;11.20;47.50;;;;;;5120345;27;20198;-71
2022/04/08 06:08:23;;;;;;;14.40;3.60;;;11.30;47.10;;;;;;5123557;27;20170;-72
2022/04/08 06:10:49;;;;;;;16.67;4.20;;;11.50;47.50;;;;;;5124612;27;20170;-72
2022/04/08 06:13:16;;;;;;;8.20;4.10;;;11.90;47.10;;;;;;5130969;27;20176;-70
2022/04/08 06:15:41;;;;;;;8.23;3.60;;;12.20;44.10;;;;;;5120448;27;20602;-70
2022/04/08 06:18:09;;;;;;;6.43;3.47;;;12.00;45.70;;;;;;5119515;27;20415;-71
2022/04/08 06:20:35;;;;;;;11.43;3.80;;;11.50;48.50;;;;;;5120528;27;20185;-73
2022/04/08 06:23:01;;;;;;;14.90;3.90;;;11.40;49.20;;;;;;5115012;27;20415;-79
2022/04/08 06:25:26;;;;;;;9.10;3.57;;;10.80;50.40;;;;;;5107332;27;20189;-80
2022/04/08 06:27:57;;;;;;;14.80;4.50;;;10.30;55.30;;;;;;5119149;28;20288;-80
2022/04/08 06:30:23;;;;;;;12.73;4.20;;;10.50;55.20;;;;;;5120951;28;21139;-80
2022/04/08 06:32:48;;;;;;;13.90;5.10;;;10.10;56.10;;;;;;5123058;28;20170;-82
2022/04/08 06:35:14;;;;;;;8.50;2.77;;;10.30;53.20;;;;;;5128648;28;20224;-81
2022/04/08 06:37:40;;;;;;;8.90;2.50;;;9.50;55.80;;;;;;5112568;28;20189;-81
2022/04/08 06:40:08;;;;;;;3.47;2.20;;;8.80;63.10;;;;;;5111616;28;20182;-80
2022/04/08 06:42:35;;;;;;;8.00;2.50;;;8.60;65.50;;;;;;5124576;28;20455;-81
2022/04/08 06:45:02;;;;;;;5.55;2.30;;;8.80;63.90;;;;;;5125772;28;20208;-81
2022/04/08 06:47:28;;;;;;;4.10;2.10;;;9.20;62.60;;;;;;5102995;28;20231;-81
2022/04/08 06:49:53;;;;;;;7.00;2.43;;;9.20;63.90;;;;;;5119242;28;20177;-81
2022/04/08 06:52:19;;;;;;;3.37;2.03;;;9.30;58.10;;;;;;5115470;28;20182;-81
2022/04/08 06:54:45;;;;;;;3.07;2.03;;;9.10;63.00;;;;;;5123529;27;20209;-76
2022/04/08 06:57:11;;;;;;;9.20;2.53;;;9.50;61.40;;;;;;5125270;27;20460;-75
2022/04/08 06:59:37;;;;;;;4.77;2.23;;;9.70;61.80;;;;;;5121491;27;20231;-74
2022/04/08 07:02:03;;;;;;;5.33;2.50;;;10.20;59.10;;;;;;5114744;27;20645;-75
2022/04/08 07:04:28;;;;;;;9.63;2.50;;;10.70;53.70;;;;;;5106039;27;20208;-75
2022/04/08 07:06:56;;;;;;;6.47;2.77;;;10.80;54.90;;;;;;5123709;27;20208;-76
2022/04/08 07:09:22;;;;;;;5.35;2.78;;;11.30;53.90;;;;;;5118672;27;20173;-75
2022/04/08 07:11:47;;;;;;;5.73;3.30;;;11.60;53.90;;;;;;5118041;27;20582;-77
2022/04/08 07:14:13;;;;;;;8.17;3.10;;;11.80;53.90;;;;;;5105070;27;20426;-77
2022/04/08 07:16:41;;;;;;;9.20;3.55;;;11.80;52.30;;;;;;5123528;27;20263;-77
2022/04/08 07:19:07;;;;;;;10.77;3.20;;;12.00;51.00;;;;;;5104933;27;20654;-79
2022/04/08 07:21:32;;;;;;;8.48;3.17;;;12.00;52.50;;;;;;5127985;27;20173;-76
2022/04/08 07:23:59;;;;;;;6.10;3.00;;;12.00;49.00;;;;;;5124053;27;20692;-76
2022/04/08 07:26:25;;;;;;;9.03;3.70;;;12.30;48.90;;;;;;5126354;27;20197;-77
2022/04/08 07:28:50;;;;;;;11.90;3.20;;;12.20;49.40;;;;;;5112631;27;20939;-76
2022/04/08 07:31:16;;;;;;;8.50;3.00;;;12.20;50.60;;;;;;5131533;27;20212;-77
2022/04/08 07:33:42;;;;;;;8.17;3.10;;;12.30;51.00;;;;;;5122487;27;20201;-78
2022/04/08 07:36:07;;;;;;;5.03;2.80;;;12.20;50.60;;;;;;5122989;27;20219;-78
2022/04/08 07:38:33;;;;;;;5.67;3.00;;;12.30;49.40;;;;;;5098877;28;20260;-77
2022/04/08 07:40:58;;;;;;;9.13;2.73;;;12.40;51.20;;;;;;5121362;27;20178;-78
2022/04/08 07:43:25;;;;;;;3.80;2.50;;;12.40;48.90;;;;;;5111486;27;20552;-73
2022/04/08 07:45:50;;;;;;;7.17;2.67;;;13.00;47.80;;;;;;5111181;28;20209;-76
2022/04/08 07:48:16;;;;;;;6.00;2.33;;;12.70;49.30;;;;;;5128070;27;20414;-73
2022/04/08 07:50:42;;;;;;;9.83;3.00;;;12.80;49.40;;;;;;5115429;28;20539;-74
2022/04/08 07:53:08;;;;;;;6.03;2.80;;;12.90;50.00;;;;;;5118580;28;20415;-74
2022/04/08 07:55:34;;;;;;;7.67;2.90;;;12.20;51.00;;;;;;5107376;28;20458;-74
2022/04/08 07:57:59;;;;;;;4.60;2.77;;;12.30;50.70;;;;;;5119130;28;20836;-77
2022/04/08 08:00:28;;;;;;;5.17;2.60;;;12.80;48.00;;;;;;5130309;28;20978;-75
2022/04/08 08:02:54;;;;;;;7.10;2.53;;;12.90;44.30;;;;;;5119532;28;20187;-75
2022/04/08 08:05:20;;;;;;;6.90;2.57;;;12.90;45.10;;;;;;5114196;28;20445;-73
2022/04/08 08:07:50;;;;;;;4.47;2.97;;;12.30;45.50;;;;;;5131029;28;20517;-73
2022/04/08 08:10:30;;;;;;;6.63;2.53;;;12.10;47.70;;;;;;5119514;28;20537;-75
2022/04/08 08:12:57;;;;;;;4.23;2.40;;;12.30;49.00;;;;;;5113221;28;20425;-77
2022/04/08 08:15:24;;;;;;;4.30;2.77;;;12.30;45.80;;;;;;5113855;28;20446;-73
2022/04/08 08:17:50;;;;;;;3.80;2.20;;;12.40;46.20;;;;;;5114823;28;20424;-73
2022/04/08 08:20:19;;;;;;;3.97;2.30;;;12.50;45.60;;;;;;5126768;28;20411;-73
2022/04/08 08:22:46;;;;;;;4.10;2.70;;;12.40;46.70;;;;;;5125816;22;20499;-78
2022/04/08 08:25:12;;;;;;;3.80;2.20;;;12.40;43.20;;;;;;5084417;28;20419;-76
2022/04/08 08:27:39;;;;;;;4.10;2.40;;;12.10;45.10;;;;;;5089553;28;20456;-77
2022/04/08 08:30:06;;;;;;;2.97;1.93;;;12.40;44.30;;;;;;5090309;28;20424;-77
2022/04/08 08:32:32;;;;;;;6.60;2.23;;;12.00;44.70;;;;;;5089538;28;20477;-77
2022/04/08 08:34:58;;;;;;;2.83;2.00;;;12.30;45.40;;;;;;5090652;28;20460;-77
2022/04/08 08:37:24;;;;;;;3.07;1.80;;;12.40;47.30;;;;;;5089933;28;20633;-76
2022/04/08 08:39:50;;;;;;;2.53;1.80;;;12.80;45.50;;;;;;5090564;28;20174;-77
2022/04/08 08:42:16;;;;;;;2.97;2.23;;;12.70;43.80;;;;;;5089498;28;20440;-77
2022/04/08 08:44:42;;;;;;;5.53;2.43;;;11.90;45.20;;;;;;5091231;28;20175;-76
2022/04/08 08:47:16;;;;;;;4.80;2.20;;;11.50;48.40;;;;;;5090007;28;20462;-76
2022/04/08 08:49:47;;;;;;;2.80;2.00;;;11.50;47.70;;;;;;5089783;28;20705;-77
2022/04/08 08:52:14;;;;;;;3.00;1.97;;;11.20;52.00;;;;;;5090135;28;20444;-76
2022/04/08 08:54:41;;;;;;;4.07;2.03;;;11.50;50.00;;;;;;5088970;28;20496;-74
2022/04/08 08:57:09;;;;;;;2.70;2.00;;;12.50;46.90;;;;;;5092569;28;20432;-74
2022/04/08 08:59:38;;;;;;;2.93;1.80;;;13.00;44.80;;;;;;5086032;28;20418;-74
2022/04/08 09:02:04;;;;;;;3.17;2.00;;;13.60;41.20;;;;;;5093436;28;20497;-74
2022/04/08 09:04:30;;;;;;;3.13;2.10;;;13.60;41.00;;;;;;5092511;28;20433;-74
2022/04/08 09:06:56;;;;;;;3.70;2.17;;;14.10;38.90;;;;;;5075128;28;20647;-74
2022/04/08 09:09:32;;;;;;;3.60;2.20;;;14.30;41.00;;;;;;5085263;28;20410;-74
2022/04/08 09:12:14;;;;;;;2.80;2.23;;;14.30;39.60;;;;;;5093761;28;20971;-73
2022/04/08 09:14:50;;;;;;;6.13;2.70;;;14.50;43.10;;;;;;5093588;28;20767;-77
2022/04/08 09:17:18;;;;;;;2.30;1.90;;;14.50;41.20;;;;;;5093517;28;20438;-75
2022/04/08 09:19:47;;;;;;;3.63;2.00;;;14.00;41.10;;;;;;5091738;28;20425;-75
2022/04/08 09:22:13;;;;;;;2.80;2.20;;;14.00;42.80;;;;;;5097820;28;20812;-74
2022/04/08 09:24:39;;;;;;;4.23;2.50;;;14.20;42.70;;;;;;5093486;28;20502;-73
2022/04/08 09:27:04;;;;;;;3.47;2.20;;;14.30;40.80;;;;;;5110144;28;20298;-75
2022/04/08 09:29:30;;;;;;;3.73;2.40;;;14.30;41.10;;;;;;5093283;28;20639;-75
2022/04/08 09:31:59;;;;;;;3.33;2.40;;;14.50;41.10;;;;;;5093781;28;20205;-74
2022/04/08 09:34:25;;;;;;;3.43;2.30;;;14.50;39.50;;;;;;5093030;28;20267;-74
2022/04/08 09:36:51;;;;;;;5.83;2.30;;;14.10;44.10;;;;;;5093585;28;20427;-74
2022/04/08 09:39:17;;;;;;;3.00;2.30;;;14.10;44.00;;;;;;5075599;28;20954;-74
2022/04/08 09:41:45;;;;;;;3.70;2.50;;;14.20;43.30;;;;;;5092706;28;20674;-74
2022/04/08 09:44:12;;;;;;;4.87;2.33;;;14.30;42.80;;;;;;5092711;28;20186;-74
2022/04/08 09:46:38;;;;;;;2.73;2.30;;;14.10;43.90;;;;;;5074392;28;20448;-74
2022/04/08 09:49:06;;;;;;;4.10;2.33;;;13.70;46.00;;;;;;5093231;28;20969;-75
2022/04/08 09:51:37;;;;;;;5.70;3.03;;;14.10;42.50;;;;;;5074163;28;20479;-74
2022/04/08 09:54:05;;;;;;;4.03;2.40;;;14.50;41.90;;;;;;5095693;28;20427;-74
2022/04/08 09:56:31;;;;;;;5.33;2.60;;;14.80;40.90;;;;;;5094530;28;20530;-77
2022/04/08 09:59:00;;;;;;;4.27;2.60;;;14.50;41.30;;;;;;5095733;28;21117;-74
2022/04/08 10:01:28;;;;;;;3.30;2.70;;;14.10;44.60;;;;;;5092426;28;20210;-74
2022/04/08 10:03:54;;;;;;;4.50;3.13;;;13.90;44.20;;;;;;5092758;28;20767;-74
2022/04/08 10:06:21;;;;;;;7.67;3.03;;;14.10;43.50;;;;;;5092671;28;20473;-74
2022/04/08 10:08:48;;;;;;;4.23;2.80;;;13.70;45.80;;;;;;5093603;28;20428;-74
2022/04/08 10:11:24;;;;;;;5.77;3.07;;;13.30;47.30;;;;;;5092666;28;20447;-74
2022/04/08 10:13:54;;;;;;;4.40;2.90;;;13.10;51.50;;;;;;5090346;28;20415;-74
2022/04/08 10:16:24;;;;;;;4.87;3.00;;;13.40;47.30;;;;;;5093854;28;20515;-75
2022/04/08 10:18:50;;;;;;;10.47;3.60;;;13.40;48.50;;;;;;5094865;28;20416;-75
2022/04/08 10:21:16;;;;;;;6.50;4.00;;;13.40;48.30;;;;;;5090763;28;20549;-75
2022/04/08 10:23:55;;;;;;;6.10;3.30;;;13.50;49.50;;;;;;5094001;28;20500;-75
2022/04/08 10:26:22;;;;;;;6.77;3.70;;;13.10;49.00;;;;;;5093522;28;20475;-75
2022/04/08 10:28:50;;;;;;;7.17;4.73;;;13.00;51.00;;;;;;5091742;28;20421;-75
2022/04/08 10:31:20;;;;;;;7.27;3.60;;;13.40;49.70;;;;;;5091858;28;20908;-75
2022/04/08 10:33:58;;;;;;;4.30;3.00;;;13.40;49.20;;;;;;5091868;28;20760;-75
2022/04/08 10:36:38;;;;;;;5.90;3.63;;;13.30;50.20;;;;;;5092142;28;20922;-75
2022/04/08 10:39:12;;;;;;;6.13;3.27;;;13.50;48.00;;;;;;5091817;28;20947;-75
2022/04/08 10:41:54;;;;;;;5.13;3.50;;;13.00;47.80;;;;;;5091592;28;20807;-75
2022/04/08 10:44:37;;;;;;;6.10;3.80;;;12.70;52.10;;;;;;5091574;28;20424;-75
2022/04/08 10:47:14;;;;;;;12.00;4.93;;;12.80;51.20;;;;;;5091350;28;20820;-76
2022/04/08 10:49:59;;;;;;;5.60;4.00;;;12.90;50.50;;;;;;5091680;28;20456;-76
2022/04/08 10:52:26;;;;;;;10.50;3.47;;;12.70;51.10;;;;;;5091483;28;20506;-75
2022/04/08 10:55:04;;;;;;;9.83;4.67;;;13.00;50.00;;;;;;5090935;28;20417;-76
2022/04/08 10:57:38;;;;;;;5.50;3.67;;;13.00;49.10;;;;;;5073813;28;20514;-75
2022/04/08 11:00:07;;;;;;;7.03;4.30;;;13.20;49.20;;;;;;5091361;28;20825;-75
2022/04/08 11:02:35;;;;;;;15.47;4.43;;;12.90;48.80;;;;;;5091321;28;20535;-75
2022/04/08 11:05:05;;;;;;;5.10;3.57;;;12.80;52.50;;;;;;5091223;28;20551;-75
2022/04/08 11:07:32;;;;;;;6.30;3.63;;;13.00;51.90;;;;;;5091032;28;20457;-75
2022/04/08 11:09:58;;;;;;;6.73;4.17;;;12.40;52.00;;;;;;5096658;28;20412;-75
2022/04/08 11:12:25;;;;;;;6.30;4.23;;;12.60;54.00;;;;;;5092274;28;20522;-76
2022/04/08 11:14:58;;;;;;;9.43;4.40;;;12.80;54.00;;;;;;5094119;28;20844;-75
2022/04/08 11:17:36;;;;;;;5.63;3.80;;;12.80;52.50;;;;;;5092563;28;20423;-76
2022/04/08 11:20:05;;;;;;;5.40;3.60;;;12.80;52.00;;;;;;5090152;28;20515;-75
2022/04/08 11:22:41;;;;;;;7.13;4.63;;;12.30;52.20;;;;;;5091816;28;20475;-75
2022/04/08 11:25:18;;;;;;;11.80;4.10;;;11.30;60.50;;;;;;5109224;28;20430;-75
2022/04/08 11:27:43;;;;;;;5.80;4.20;;;11.30;65.00;;;;;;5095782;28;21173;-76
2022/04/08 11:30:09;;;;;;;5.80;4.70;;;12.20;58.10;;;;;;5091389;28;20499;-75
2022/04/08 11:32:39;;;;;;;6.83;4.20;;;12.70;56.90;;;;;;5091138;28;20269;-76
2022/04/08 11:35:13;;;;;;;5.30;3.67;;;13.20;52.90;;;;;;5092249;28;20906;-75
2022/04/08 11:37:39;;;;;;;16.90;4.20;;;13.20;51.50;;;;;;5083633;28;20783;-75
2022/04/08 11:40:07;;;;;;;9.07;4.07;;;12.90;54.40;;;;;;5091067;28;20422;-75
2022/04/08 11:42:33;;;;;;;7.47;4.00;;;16.30;59.90;;;;;;5090910;28;20199;-75
2022/04/08 11:44:59;;;;;;;5.20;3.73;;;12.70;56.40;;;;;;5096312;28;20436;-75
2022/04/08 11:47:32;;;;;;;6.13;4.10;;;13.10;54.00;;;;;;5092326;28;20863;-76
2022/04/08 11:50:03;;;;;;;7.00;4.43;;;13.00;55.50;;;;;;5091328;28;21006;-76
2022/04/08 11:52:29;;;;;;;6.67;4.80;;;13.30;53.20;;;;;;5091225;28;20811;-76
2022/04/08 11:55:05;;;;;;;6.07;4.60;;;13.20;53.60;;;;;;5088896;28;20426;-76
2022/04/08 11:57:34;;;;;;;6.13;4.23;;;13.60;52.00;;;;;;5095712;28;20188;-76
2022/04/08 12:00:08;;;;;;;5.47;4.73;;;13.60;51.10;;;;;;5090715;28;20928;-77
2022/04/08 12:02:34;;;;;;;7.80;4.50;;;13.80;50.80;;;;;;5094794;28;20440;-76
2022/04/08 12:04:59;;;;;;;8.20;4.33;;;13.60;51.90;;;;;;5096965;28;20462;-77
2022/04/08 12:07:30;;;;;;;6.03;4.70;;;13.60;51.90;;;;;;5093260;28;20490;-77
2022/04/08 12:09:58;;;;;;;7.50;4.87;;;13.60;51.00;;;;;;5090782;28;20535;-76
2022/04/08 12:12:27;;;;;;;4.60;3.73;;;13.70;48.30;;;;;;5094252;28;20439;-76
2022/04/08 12:14:54;;;;;;;6.53;4.70;;;12.70;56.80;;;;;;5092069;28;20425;-76
2022/04/08 12:17:20;;;;;;;9.50;4.73;;;12.80;57.60;;;;;;5091017;28;20869;-77
2022/04/08 12:19:51;;;;;;;6.80;4.10;;;13.10;55.60;;;;;;5091209;28;20853;-76
2022/04/08 12:22:17;;;;;;;6.67;4.50;;;13.30;54.20;;;;;;5098141;28;20463;-76
2022/04/08 12:24:45;;;;;;;5.67;4.40;;;13.50;53.50;;;;;;5104779;28;20457;-75
2022/04/08 12:27:19;;;;;;;5.60;4.17;;;13.60;51.90;;;;;;5093373;28;20452;-76
2022/04/08 12:29:46;;;;;;;7.67;4.77;;;12.60;55.80;;;;;;5090950;28;20417;-76
2022/04/08 12:32:15;;;;;;;8.37;5.80;;;12.80;55.70;;;;;;5092899;28;20472;-75
2022/04/08 12:34:42;;;;;;;6.80;5.10;;;13.10;52.80;;;;;;5094086;28;20421;-76
2022/04/08 12:37:08;;;;;;;7.73;4.97;;;12.90;54.50;;;;;;5095597;28;20421;-76
2022/04/08 12:39:34;;;;;;;7.77;5.23;;;11.80;61.10;;;;;;5093933;28;20926;-76
2022/04/08 12:42:01;;;;;;;9.07;5.33;;;11.50;65.30;;;;;;5095094;28;20491;-76
2022/04/08 12:44:27;;;;;;;9.50;5.90;;;11.60;65.40;;;;;;5097459;28;20427;-76